Terminal Aerodrome Forecast
Issued by NWS

Home | Current Version | Previous Version | Text Only | Print | Product List | Glossary On
Versions: 1 2 3 4 5 6 7 8 9 10 11 12 13 14 15
000
FTUS45 KRIW 181100
TAFCPR
TAF
KCPR 181129Z 1812/1912 25006KT P6SM SKC
     FM181600 24014G22KT P6SM SCT250
     FM190100 24011KT P6SM SCT120
     FM191000 24007KT P6SM BKN110=

USA.gov is the U.S. government's official web portal to all federal, state and local government web resources and services.